createdAt,value
2019-03-16T00:01:28.397Z,61.25
2019-03-16T00:03:56.129Z,60.66
2019-03-16T00:06:24.203Z,60.98
2019-03-16T00:08:51.997Z,61.95
2019-03-16T00:11:19.747Z,62.73
2019-03-16T00:13:47.506Z,63.22
2019-03-16T00:16:15.280Z,62.66
2019-03-16T00:18:43.058Z,62.87
2019-03-16T00:21:10.843Z,63.77
2019-03-16T00:23:38.625Z,64.41
2019-03-16T00:26:06.389Z,63.47
2019-03-16T00:28:34.183Z,63.23
2019-03-16T00:31:02.089Z,64.12
2019-03-16T00:33:29.846Z,64.30
2019-03-16T00:35:57.650Z,63.81
2019-03-16T00:38:25.432Z,64.55
2019-03-16T00:40:53.207Z,64.41
2019-03-16T00:43:20.982Z,64.62
2019-03-16T00:45:48.820Z,64.43
2019-03-16T00:48:16.557Z,64.26
2019-03-16T00:50:44.594Z,64.48
2019-03-16T00:53:12.354Z,64.74
2019-03-16T00:55:40.126Z,64.34
2019-03-16T00:58:07.864Z,64.85
2019-03-16T01:00:35.639Z,64.80
2019-03-16T01:03:03.578Z,64.64
2019-03-16T01:05:31.327Z,64.33
2019-03-16T01:07:59.094Z,64.37
2019-03-16T01:10:26.844Z,64.39
2019-03-16T01:12:54.649Z,63.81
2019-03-16T01:15:22.423Z,64.52
2019-03-16T01:17:50.439Z,64.50
2019-03-16T01:20:18.220Z,64.42
2019-03-16T01:22:45.974Z,64.29
2019-03-16T01:25:13.747Z,64.42
2019-03-16T01:27:41.545Z,63.65
2019-03-16T01:30:13.840Z,64.10
2019-03-16T01:32:41.689Z,63.99
2019-03-16T01:35:09.457Z,64.46
2019-03-16T01:37:37.247Z,63.99
2019-03-16T01:40:05.465Z,64.67
2019-03-16T01:42:33.201Z,64.25
2019-03-16T01:45:00.948Z,63.94
2019-03-16T01:47:28.720Z,63.82
2019-03-16T01:49:56.677Z,63.84
2019-03-16T01:52:24.463Z,64.53
2019-03-16T01:54:52.192Z,64.44
2019-03-16T01:57:19.983Z,64.82
2019-03-16T01:59:47.705Z,64.85
2019-03-16T02:02:15.456Z,64.82
2019-03-16T02:04:43.205Z,63.31
2019-03-16T02:07:10.952Z,63.48
2019-03-16T02:09:38.698Z,63.63
2019-03-16T02:12:06.471Z,63.40
2019-03-16T02:14:34.207Z,63.14
2019-03-16T02:17:02.013Z,63.19
2019-03-16T02:19:29.763Z,62.70
2019-03-16T02:21:57.517Z,62.46
2019-03-16T02:24:25.292Z,61.97
2019-03-16T02:26:53.044Z,62.79
2019-03-16T02:29:20.796Z,63.29
2019-03-16T02:31:48.553Z,62.83
2019-03-16T02:34:16.313Z,62.87
2019-03-16T02:36:51.174Z,62.77
2019-03-16T02:39:18.938Z,63.19
2019-03-16T02:41:47.047Z,63.07
2019-03-16T02:44:14.798Z,63.24
2019-03-16T02:46:42.632Z,63.11
2019-03-16T02:49:10.403Z,62.32
2019-03-16T02:51:38.241Z,62.73
2019-03-16T02:54:06.009Z,63.13
2019-03-16T02:56:33.716Z,62.83
2019-03-16T02:59:01.478Z,63.14
2019-03-16T03:01:29.280Z,62.89
2019-03-16T03:03:57.101Z,62.43
2019-03-16T03:06:24.848Z,62.99
2019-03-16T03:08:54.912Z,61.96
2019-03-16T03:11:22.643Z,62.65
2019-03-16T03:13:50.404Z,62.74
2019-03-16T03:16:18.149Z,62.53
2019-03-16T03:18:49.317Z,62.47
2019-03-16T03:21:15.602Z,62.83
2019-03-16T03:23:43.390Z,62.75
2019-03-16T03:26:11.108Z,63.11
2019-03-16T03:28:38.878Z,62.99
2019-03-16T03:31:06.850Z,62.55
2019-03-16T03:33:57.666Z,62.04
2019-03-16T03:36:04.313Z,62.07
2019-03-16T03:38:32.065Z,62.11
2019-03-16T03:41:01.845Z,62.02
2019-03-16T03:43:29.434Z,63.46
2019-03-16T03:45:57.161Z,63.79
2019-03-16T03:48:24.918Z,63.37
2019-03-16T03:50:52.991Z,63.38
2019-03-16T03:53:20.704Z,63.38
2019-03-16T03:55:48.480Z,63.26
2019-03-16T03:58:16.215Z,64.11
2019-03-16T04:00:44.512Z,64.19
2019-03-16T04:03:12.385Z,64.50
2019-03-16T04:05:40.158Z,64.50
2019-03-16T04:08:09.527Z,64.83
2019-03-16T04:10:37.325Z,65.02
2019-03-16T04:13:05.075Z,65.19
2019-03-16T04:15:36.205Z,64.32
2019-03-16T04:18:04.005Z,64.40
2019-03-16T04:20:31.785Z,64.83
2019-03-16T04:22:59.555Z,65.16
2019-03-16T04:25:27.361Z,65.04
2019-03-16T04:27:55.177Z,65.60
2019-03-16T04:30:22.952Z,66.02
2019-03-16T04:32:50.707Z,66.38
2019-03-16T04:35:18.781Z,66.04
2019-03-16T04:37:46.498Z,65.89
2019-03-16T04:40:14.550Z,65.45
2019-03-16T04:42:42.416Z,65.29
2019-03-16T04:45:10.333Z,65.20
2019-03-16T04:47:38.083Z,65.89
2019-03-16T04:50:05.950Z,65.32
2019-03-16T04:52:33.692Z,65.47
2019-03-16T04:55:01.445Z,64.86
2019-03-16T04:57:29.330Z,65.30
2019-03-16T04:59:57.060Z,65.20
2019-03-16T05:02:24.859Z,64.74
2019-03-16T05:04:52.764Z,65.15
2019-03-16T05:07:20.769Z,64.91
2019-03-16T05:09:48.974Z,64.51
2019-03-16T05:12:21.462Z,64.38
2019-03-16T05:14:55.090Z,65.61
2019-03-16T05:17:34.261Z,65.75
2019-03-16T05:20:04.987Z,65.90
2019-03-16T05:22:36.406Z,65.61
2019-03-16T05:25:23.958Z,64.83
2019-03-16T05:28:10.821Z,65.08
2019-03-16T05:30:38.650Z,65.08
2019-03-16T05:33:06.420Z,64.39
2019-03-16T05:35:34.219Z,63.80
2019-03-16T05:38:01.990Z,63.29
2019-03-16T05:40:29.769Z,63.31
2019-03-16T05:42:57.545Z,63.49
2019-03-16T05:45:25.421Z,63.81
2019-03-16T05:47:53.279Z,63.19
2019-03-16T05:50:20.993Z,62.78
2019-03-16T05:52:48.921Z,63.50
2019-03-16T05:55:16.748Z,63.12
2019-03-16T05:57:44.565Z,62.53
2019-03-16T06:00:12.345Z,62.12
2019-03-16T06:02:40.175Z,61.28
2019-03-16T06:05:10.997Z,61.79
2019-03-16T06:07:37.815Z,62.19
2019-03-16T06:10:05.656Z,61.70
2019-03-16T06:12:33.415Z,61.59
2019-03-16T06:15:01.159Z,61.84
2019-03-16T06:17:28.902Z,61.51
2019-03-16T06:19:56.695Z,61.28
2019-03-16T06:22:24.477Z,61.89
2019-03-16T06:24:52.242Z,61.19
2019-03-16T06:27:20.062Z,60.92
2019-03-16T06:29:47.795Z,60.83
2019-03-16T06:32:15.566Z,61.02
2019-03-16T06:34:46.214Z,61.02
2019-03-16T06:37:16.694Z,60.67
2019-03-16T06:39:44.437Z,60.98
2019-03-16T06:42:12.231Z,61.56
2019-03-16T06:44:45.819Z,60.17
2019-03-16T06:47:13.704Z,60.01
2019-03-16T06:49:41.550Z,60.00
2019-03-16T06:52:09.622Z,59.41
2019-03-16T06:54:37.433Z,59.86
2019-03-16T06:57:05.187Z,59.70
2019-03-16T06:59:32.954Z,59.62
2019-03-16T07:02:00.723Z,59.31
2019-03-16T07:04:28.523Z,59.02
2019-03-16T07:06:58.996Z,59.37
2019-03-16T07:09:26.782Z,58.82
2019-03-16T07:11:54.541Z,58.23
2019-03-16T07:14:22.555Z,58.39
2019-03-16T07:17:01.308Z,58.25
2019-03-16T07:19:19.978Z,58.13
2019-03-16T07:21:47.710Z,57.71
2019-03-16T07:24:15.499Z,58.31
2019-03-16T07:26:43.262Z,58.08
2019-03-16T07:29:11.045Z,56.80
2019-03-16T07:31:38.841Z,57.35
2019-03-16T07:34:06.587Z,57.71
2019-03-16T07:36:36.116Z,56.60
2019-03-16T07:39:05.964Z,56.16
2019-03-16T07:41:33.713Z,56.05
2019-03-16T07:44:01.593Z,56.37
2019-03-16T07:46:29.317Z,56.90
2019-03-16T07:48:57.081Z,56.77
2019-03-16T07:51:24.930Z,56.58
2019-03-16T07:53:52.696Z,56.30
2019-03-16T07:56:20.539Z,56.32
2019-03-16T07:58:48.323Z,54.62
2019-03-16T08:01:16.113Z,54.62
2019-03-16T08:03:43.967Z,54.54
2019-03-16T08:06:11.748Z,54.36
2019-03-16T08:08:39.519Z,53.49
2019-03-16T08:11:07.340Z,54.14
2019-03-16T08:13:35.109Z,55.39
2019-03-16T08:16:02.879Z,55.39
2019-03-16T08:18:30.665Z,54.71
2019-03-16T08:20:58.414Z,55.22
2019-03-16T08:23:26.305Z,56.28
2019-03-16T08:25:54.095Z,56.05
2019-03-16T08:28:21.849Z,58.06
2019-03-16T08:30:49.624Z,57.72
2019-03-16T08:33:17.415Z,57.68
2019-03-16T08:35:45.216Z,57.43
2019-03-16T08:38:12.961Z,58.56
2019-03-16T08:40:40.737Z,57.29
2019-03-16T08:43:08.504Z,57.95
2019-03-16T08:45:36.252Z,58.50
2019-03-16T08:48:06.413Z,59.16
2019-03-16T08:50:34.232Z,60.21
2019-03-16T08:53:02.002Z,60.77
2019-03-16T08:55:29.779Z,61.33
2019-03-16T08:58:05.934Z,61.29
2019-03-16T09:00:27.198Z,62.02
2019-03-16T09:02:54.969Z,62.62
2019-03-16T09:05:22.774Z,63.58
2019-03-16T09:07:50.506Z,64.03
2019-03-16T09:10:18.304Z,64.20
2019-03-16T09:12:54.816Z,63.74
2019-03-16T09:15:15.846Z,64.81
2019-03-16T09:17:43.601Z,64.92
2019-03-16T09:20:11.416Z,65.26
2019-03-16T09:22:39.203Z,66.93
2019-03-16T09:25:07.122Z,67.41
2019-03-16T09:27:34.885Z,67.60
2019-03-16T09:30:03.370Z,67.58
2019-03-16T09:32:31.169Z,68.29
2019-03-16T09:34:58.922Z,68.84
2019-03-16T09:37:26.731Z,67.97
2019-03-16T09:39:54.488Z,67.87
2019-03-16T09:42:22.279Z,68.47
2019-03-16T09:44:50.123Z,68.45
2019-03-16T09:47:17.909Z,68.79
2019-03-16T09:49:45.699Z,68.17
2019-03-16T09:52:13.475Z,67.73
2019-03-16T09:54:41.279Z,68.87
2019-03-16T09:57:09.041Z,69.59
2019-03-16T09:59:36.792Z,68.92
2019-03-16T10:02:04.602Z,68.29
2019-03-16T10:04:32.361Z,68.79
2019-03-16T10:07:00.137Z,70.25
2019-03-16T10:09:27.874Z,70.96
2019-03-16T10:11:55.650Z,70.51
2019-03-16T10:14:23.366Z,70.73
2019-03-16T10:16:51.143Z,71.83
2019-03-16T10:19:18.916Z,72.22
2019-03-16T10:21:46.731Z,72.36
2019-03-16T10:24:14.510Z,71.89
2019-03-16T10:26:42.284Z,70.70
2019-03-16T10:29:10.071Z,71.66
2019-03-16T10:31:37.801Z,71.21
2019-03-16T10:34:05.609Z,71.48
2019-03-16T10:36:33.384Z,72.34
2019-03-16T10:39:01.156Z,72.90
2019-03-16T10:41:28.889Z,73.35
2019-03-16T10:43:56.666Z,74.14
2019-03-16T10:46:24.446Z,74.41
2019-03-16T10:48:52.308Z,74.67
2019-03-16T10:51:20.038Z,74.20
2019-03-16T10:53:47.816Z,74.10
2019-03-16T10:56:15.568Z,74.26
2019-03-16T10:58:55.721Z,75.15
2019-03-16T11:01:12.998Z,76.26
2019-03-16T11:03:40.754Z,76.83
2019-03-16T11:06:08.498Z,76.37
2019-03-16T11:08:36.254Z,75.91
2019-03-16T11:11:04.014Z,76.65
2019-03-16T11:13:31.786Z,77.13
2019-03-16T11:15:59.553Z,76.83
2019-03-16T11:18:27.616Z,76.52
2019-03-16T11:20:55.390Z,76.53
2019-03-16T11:23:23.169Z,76.56
2019-03-16T11:25:50.928Z,76.52
2019-03-16T11:28:18.733Z,76.78
2019-03-16T11:30:46.465Z,77.08
2019-03-16T11:33:14.228Z,76.82
2019-03-16T11:35:42.306Z,76.20
2019-03-16T11:38:10.057Z,75.94
2019-03-16T11:40:37.835Z,77.39
2019-03-16T11:43:05.594Z,77.35
2019-03-16T11:45:34.189Z,77.02
2019-03-16T11:48:01.935Z,76.95
2019-03-16T11:50:29.696Z,76.75
2019-03-16T11:52:57.458Z,76.91
2019-03-16T11:55:25.207Z,77.09
2019-03-16T11:57:52.953Z,77.28
2019-03-16T12:00:20.723Z,77.29
2019-03-16T12:02:48.461Z,77.89
2019-03-16T12:05:16.224Z,78.35
2019-03-16T12:07:44.023Z,79.58
2019-03-16T12:10:11.994Z,80.40
2019-03-16T12:12:39.773Z,80.50
2019-03-16T12:15:07.718Z,79.61
2019-03-16T12:17:35.496Z,80.34
2019-03-16T12:20:04.095Z,80.03
2019-03-16T12:22:31.815Z,79.93
2019-03-16T12:24:59.609Z,80.07
2019-03-16T12:27:27.392Z,79.80
2019-03-16T12:29:55.141Z,78.97
2019-03-16T12:32:22.895Z,78.56
2019-03-16T12:34:50.651Z,76.32
2019-03-16T12:37:18.382Z,75.80
2019-03-16T12:39:46.290Z,75.19
2019-03-16T12:42:14.024Z,74.20
2019-03-16T12:44:41.820Z,73.86
2019-03-16T12:47:09.600Z,74.02
2019-03-16T12:49:37.324Z,74.37
2019-03-16T12:52:05.112Z,76.05
2019-03-16T12:54:32.864Z,76.08
2019-03-16T12:57:00.663Z,76.26
2019-03-16T12:59:28.425Z,76.93
2019-03-16T13:01:56.220Z,76.86
2019-03-16T13:04:26.716Z,77.21
2019-03-16T13:06:54.497Z,77.38
2019-03-16T13:09:22.317Z,77.69
2019-03-16T13:11:50.220Z,77.80
2019-03-16T13:14:17.979Z,77.36
2019-03-16T13:16:45.761Z,75.99
2019-03-16T13:19:13.520Z,75.83
2019-03-16T13:21:43.738Z,76.01
2019-03-16T13:24:11.039Z,76.20
2019-03-16T13:26:38.789Z,76.25
2019-03-16T13:29:06.565Z,76.01
2019-03-16T13:31:34.384Z,75.91
2019-03-16T13:34:02.178Z,76.74
2019-03-16T13:36:29.954Z,77.15
2019-03-16T13:38:57.698Z,76.68
2019-03-16T13:41:25.777Z,77.19
2019-03-16T13:43:53.548Z,77.29
2019-03-16T13:46:21.359Z,77.43
2019-03-16T13:48:49.107Z,77.68
2019-03-16T13:51:16.871Z,78.13
2019-03-16T13:53:44.627Z,78.62
2019-03-16T13:56:12.432Z,78.76
2019-03-16T13:58:40.904Z,79.57
2019-03-16T14:01:08.755Z,80.17
2019-03-16T14:03:36.575Z,79.79
2019-03-16T14:06:04.621Z,79.97
2019-03-16T14:08:32.423Z,80.01
2019-03-16T14:11:00.195Z,80.21
2019-03-16T14:13:28.273Z,80.22
2019-03-16T14:15:56.036Z,80.47
2019-03-16T14:18:23.848Z,80.26
2019-03-16T14:20:51.612Z,80.20
2019-03-16T14:23:19.387Z,79.95
2019-03-16T14:25:47.285Z,79.80
2019-03-16T14:28:15.153Z,80.28
2019-03-16T14:30:45.147Z,80.67
2019-03-16T14:33:12.600Z,80.75
2019-03-16T14:35:40.426Z,80.95
2019-03-16T14:38:08.258Z,80.91
2019-03-16T14:40:36.086Z,80.64
2019-03-16T14:43:03.824Z,81.40
2019-03-16T14:45:31.882Z,81.40
2019-03-16T14:47:59.670Z,81.26
2019-03-16T14:50:27.440Z,81.57
2019-03-16T14:52:55.250Z,81.36
2019-03-16T14:55:23.037Z,80.81
2019-03-16T14:57:50.805Z,79.94
2019-03-16T15:00:18.613Z,79.31
2019-03-16T15:02:46.897Z,78.75
2019-03-16T15:05:14.754Z,78.30
2019-03-16T15:07:42.518Z,76.41
2019-03-16T15:10:10.497Z,75.82
2019-03-16T15:12:38.275Z,75.11
2019-03-16T15:15:08.380Z,75.13
2019-03-16T15:17:36.132Z,75.03
2019-03-16T15:20:04.744Z,74.45
2019-03-16T15:22:32.499Z,74.38
2019-03-16T15:25:00.524Z,74.17
2019-03-16T15:27:28.299Z,73.79
2019-03-16T15:29:56.066Z,73.88
2019-03-16T15:32:23.839Z,73.40
2019-03-16T15:34:51.617Z,72.54
2019-03-16T15:37:19.361Z,72.75
2019-03-16T15:39:47.153Z,72.28
2019-03-16T15:42:14.911Z,72.11
2019-03-16T15:44:42.705Z,71.63
2019-03-16T15:47:10.441Z,71.50
2019-03-16T15:49:38.227Z,71.33
2019-03-16T15:52:05.955Z,70.50
2019-03-16T15:54:33.743Z,69.99
2019-03-16T15:57:01.502Z,70.27
2019-03-16T15:59:29.311Z,69.84
2019-03-16T16:01:57.086Z,70.00
2019-03-16T16:04:24.833Z,70.25
2019-03-16T16:06:52.687Z,70.48
2019-03-16T16:09:20.448Z,70.85
2019-03-16T16:11:48.275Z,70.56
2019-03-16T16:14:16.024Z,70.92
2019-03-16T16:16:43.766Z,70.50
2019-03-16T16:19:11.526Z,70.63
2019-03-16T16:21:39.420Z,70.54
2019-03-16T16:24:07.164Z,69.88
2019-03-16T16:26:34.952Z,69.95
2019-03-16T16:29:02.729Z,69.82
2019-03-16T16:31:30.536Z,69.57
2019-03-16T16:33:58.278Z,69.19
2019-03-16T16:36:26.035Z,69.20
2019-03-16T16:38:54.080Z,68.87
2019-03-16T16:41:21.850Z,68.52
2019-03-16T16:43:49.625Z,68.22
2019-03-16T16:46:17.420Z,67.69
2019-03-16T16:48:45.165Z,67.85
2019-03-16T16:51:12.970Z,67.26
2019-03-16T16:53:40.740Z,66.83
2019-03-16T16:56:08.516Z,66.82
2019-03-16T16:58:36.264Z,66.95
2019-03-16T17:01:04.144Z,67.38
2019-03-16T17:03:31.922Z,67.47
2019-03-16T17:05:59.666Z,67.37
2019-03-16T17:08:27.483Z,67.17
2019-03-16T17:10:55.270Z,67.75
2019-03-16T17:13:23.098Z,67.48
2019-03-16T17:15:50.926Z,67.42
2019-03-16T17:18:18.756Z,67.67
2019-03-16T17:20:46.507Z,67.35
2019-03-16T17:23:14.281Z,67.30
2019-03-16T17:25:42.020Z,67.79
2019-03-16T17:28:09.793Z,67.64
2019-03-16T17:30:37.555Z,67.45
2019-03-16T17:33:05.301Z,67.74
2019-03-16T17:35:33.069Z,67.78
2019-03-16T17:38:00.877Z,67.50
2019-03-16T17:40:28.711Z,68.13
2019-03-16T17:42:56.455Z,68.00
2019-03-16T17:45:24.223Z,68.59
2019-03-16T17:47:51.964Z,68.41
2019-03-16T17:50:19.757Z,68.24
2019-03-16T17:52:47.533Z,67.99
2019-03-16T17:55:15.369Z,68.53
2019-03-16T17:57:45.311Z,67.83
2019-03-16T18:00:12.874Z,67.89
2019-03-16T18:02:50.745Z,68.09
2019-03-16T18:05:10.390Z,68.31
2019-03-16T18:07:38.183Z,68.13
2019-03-16T18:10:08.014Z,67.84
2019-03-16T18:12:35.896Z,67.49
2019-03-16T18:15:04.777Z,67.15
2019-03-16T18:17:32.604Z,66.80
2019-03-16T18:20:00.854Z,66.78
2019-03-16T18:22:28.612Z,66.40
2019-03-16T18:24:56.506Z,66.68
2019-03-16T18:27:24.430Z,66.64
2019-03-16T18:29:52.580Z,66.73
2019-03-16T18:32:20.432Z,66.52
2019-03-16T18:34:48.302Z,66.90
2019-03-16T18:37:16.069Z,67.15
2019-03-16T18:39:43.887Z,67.07
2019-03-16T18:42:11.828Z,67.09
2019-03-16T18:44:39.718Z,66.98
2019-03-16T18:47:10.402Z,66.87
2019-03-16T18:49:38.201Z,67.11
2019-03-16T18:52:06.030Z,67.16
2019-03-16T18:54:33.890Z,66.93
2019-03-16T18:57:03.464Z,66.67
2019-03-16T18:59:31.254Z,66.55
2019-03-16T19:01:59.091Z,66.59
2019-03-16T19:04:26.993Z,66.09
2019-03-16T19:06:54.803Z,66.28
2019-03-16T19:09:24.018Z,66.07
2019-03-16T19:11:51.925Z,65.45
2019-03-16T19:14:19.713Z,65.22
2019-03-16T19:16:47.604Z,65.17
2019-03-16T19:19:15.608Z,65.22
2019-03-16T19:21:43.424Z,65.25
2019-03-16T19:24:11.184Z,65.55
2019-03-16T19:26:38.972Z,65.46
2019-03-16T19:29:07.073Z,65.54
2019-03-16T19:31:34.893Z,65.38
2019-03-16T19:34:02.683Z,65.03
2019-03-16T19:36:30.737Z,65.28
2019-03-16T19:39:00.723Z,64.44
2019-03-16T19:41:28.784Z,64.15
2019-03-16T19:43:56.587Z,63.73
2019-03-16T19:46:24.554Z,63.87
2019-03-16T19:48:52.313Z,63.92
2019-03-16T19:51:22.672Z,64.00
2019-03-16T19:53:50.459Z,64.35
2019-03-16T19:56:18.615Z,63.97
2019-03-16T19:58:46.358Z,64.29
2019-03-16T20:01:15.106Z,63.88
2019-03-16T20:03:44.053Z,63.94
2019-03-16T20:06:24.767Z,63.75
2019-03-16T20:08:41.619Z,64.18
2019-03-16T20:11:11.490Z,63.60
2019-03-16T20:13:40.986Z,63.65
2019-03-16T20:16:08.785Z,64.12
2019-03-16T20:18:36.825Z,63.95
2019-03-16T20:21:04.973Z,63.53
2019-03-16T20:23:32.750Z,63.70
2019-03-16T20:26:00.535Z,63.12
2019-03-16T20:28:28.334Z,63.51
2019-03-16T20:30:56.287Z,63.14
2019-03-16T20:33:24.122Z,62.96
2019-03-16T20:35:51.918Z,63.10
2019-03-16T20:38:19.825Z,62.37
2019-03-16T20:40:49.977Z,62.41
2019-03-16T20:43:19.311Z,62.43
2019-03-16T20:45:47.144Z,61.96
2019-03-16T20:48:17.000Z,61.83
2019-03-16T20:50:44.768Z,61.52
2019-03-16T20:53:12.616Z,60.98
2019-03-16T20:55:40.435Z,61.01
2019-03-16T20:58:08.203Z,60.77
2019-03-16T21:00:35.969Z,60.92
2019-03-16T21:03:15.639Z,60.66
2019-03-16T21:05:33.632Z,60.81
2019-03-16T21:08:01.713Z,60.77
2019-03-16T21:10:29.479Z,60.78
2019-03-16T21:12:57.438Z,61.07
2019-03-16T21:15:25.225Z,61.16
2019-03-16T21:17:55.697Z,61.13
2019-03-16T21:20:22.766Z,61.43
2019-03-16T21:22:50.694Z,61.76
2019-03-16T21:25:18.464Z,62.18
2019-03-16T21:27:46.175Z,61.88
2019-03-16T21:30:14.443Z,62.12
2019-03-16T21:32:42.233Z,62.28
2019-03-16T21:35:10.135Z,62.54
2019-03-16T21:37:37.929Z,62.44
2019-03-16T21:40:06.066Z,62.82
2019-03-16T21:42:34.111Z,62.82
2019-03-16T21:45:01.876Z,62.63
2019-03-16T21:47:29.661Z,62.71
2019-03-16T21:49:57.439Z,63.04
2019-03-16T21:52:25.195Z,63.64
2019-03-16T21:54:53.015Z,63.59
2019-03-16T21:57:20.845Z,63.29
2019-03-16T21:59:48.658Z,63.51
2019-03-16T22:02:16.468Z,63.40
2019-03-16T22:04:45.383Z,63.38
2019-03-16T22:07:13.144Z,63.52
2019-03-16T22:09:40.966Z,63.64
2019-03-16T22:12:08.734Z,62.95
2019-03-16T22:14:36.544Z,63.00
2019-03-16T22:17:04.526Z,63.14
2019-03-16T22:19:32.335Z,62.84
2019-03-16T22:22:00.094Z,62.87
2019-03-16T22:24:27.841Z,63.18
2019-03-16T22:26:55.579Z,63.28
2019-03-16T22:29:23.390Z,63.86
2019-03-16T22:31:51.147Z,63.43
2019-03-16T22:34:18.965Z,63.41
2019-03-16T22:36:46.728Z,63.65
2019-03-16T22:39:14.522Z,63.90
2019-03-16T22:41:42.299Z,63.83
2019-03-16T22:44:10.068Z,64.17
2019-03-16T22:46:37.898Z,64.37
2019-03-16T22:49:05.641Z,64.73
2019-03-16T22:51:33.414Z,64.88
2019-03-16T22:54:01.184Z,64.90
2019-03-16T22:56:28.992Z,65.57
2019-03-16T22:58:57.043Z,66.06
2019-03-16T23:01:25.076Z,66.28
2019-03-16T23:03:53.142Z,66.44
2019-03-16T23:06:20.942Z,66.59
2019-03-16T23:08:48.763Z,66.42
2019-03-16T23:11:16.565Z,66.75
2019-03-16T23:13:44.338Z,66.55
2019-03-16T23:16:12.137Z,66.78
2019-03-16T23:18:39.923Z,66.82
2019-03-16T23:21:07.647Z,67.27
2019-03-16T23:23:35.396Z,67.76
2019-03-16T23:26:03.248Z,67.67
2019-03-16T23:28:31.043Z,68.15
2019-03-16T23:30:58.818Z,67.82
2019-03-16T23:33:26.543Z,67.74
2019-03-16T23:35:54.287Z,67.97
2019-03-16T23:38:22.033Z,68.19
2019-03-16T23:40:49.811Z,67.85
2019-03-16T23:43:17.708Z,67.73
2019-03-16T23:45:45.502Z,67.47
2019-03-16T23:48:13.237Z,67.80
2019-03-16T23:50:41.015Z,67.92
2019-03-16T23:53:08.728Z,68.52
2019-03-16T23:55:36.493Z,68.48
2019-03-16T23:58:04.229Z,68.98
